Time;durP1;ratioP1;P1;durP2;ratioP2;P2;SDS_P1;SDS_P2;PMS_P1;PMS_P2;Temp;Humidity;BMP_temperature;BMP_pressure;BME280_temperature;BME280_humidity;BME280_pressure;Samples;Min_cycle;Max_cycle;Signal;HPM_P1;HPM_P2
2021/08/31 00:01:46;;;;;;;8.38;3.40;;;;;;;23.56;41.58;94947.63;5043778;28;20480;-78
2021/08/31 00:04:11;;;;;;;7.82;3.08;;;;;;;23.41;41.88;94937.13;5025778;28;20086;-80
2021/08/31 00:06:36;;;;;;;4.55;3.00;;;;;;;23.46;41.92;94943.75;5026493;28;20047;-79
2021/08/31 00:09:02;;;;;;;4.88;3.22;;;;;;;23.54;41.98;94941.94;5043651;28;20499;-79
2021/08/31 00:11:27;;;;;;;5.82;3.35;;;;;;;23.57;41.92;94946.38;5025987;28;20102;-79
2021/08/31 00:13:53;;;;;;;10.43;4.40;;;;;;;23.61;42.13;94944.09;5044774;28;20518;-79
2021/08/31 00:16:18;;;;;;;4.13;2.95;;;;;;;23.62;41.79;94940.13;5026908;28;20033;-80
2021/08/31 00:18:44;;;;;;;5.80;3.05;;;;;;;23.63;41.79;94941.59;5044834;28;20031;-79
2021/08/31 00:21:10;;;;;;;5.35;3.28;;;;;;;23.65;41.85;94939.13;5047358;28;20561;-80
2021/08/31 00:23:36;;;;;;;6.03;3.15;;;;;;;23.65;42.15;94939.13;5030399;28;20025;-80
2021/08/31 00:26:01;;;;;;;4.45;2.90;;;;;;;23.64;42.18;94943.09;5029622;28;20521;-77
2021/08/31 00:28:27;;;;;;;5.95;3.03;;;;;;;23.63;42.05;94936.13;5056089;28;20037;-78
2021/08/31 00:30:52;;;;;;;6.65;3.58;;;;;;;23.56;42.24;94936.72;5058369;28;20047;-78
2021/08/31 00:33:18;;;;;;;5.80;2.75;;;;;;;23.54;42.07;94920.88;5037507;28;20490;-78
2021/08/31 00:35:43;;;;;;;4.82;2.97;;;;;;;23.60;41.96;94937.16;5018157;28;20053;-78
2021/08/31 00:38:09;;;;;;;4.80;3.10;;;;;;;23.58;42.26;94945.13;5052217;28;20388;-78
2021/08/31 00:40:34;;;;;;;5.38;3.40;;;;;;;23.58;41.91;94945.13;5035847;28;20422;-78
2021/08/31 00:43:01;;;;;;;6.88;3.20;;;;;;;23.60;41.89;94954.28;5070656;28;20032;-78
2021/08/31 00:45:26;;;;;;;6.90;3.22;;;;;;;23.60;41.86;94964.44;5051156;28;20114;-78
2021/08/31 00:47:53;;;;;;;4.95;3.20;;;;;;;23.59;41.89;94960.25;5067615;28;20040;-78
2021/08/31 00:50:19;;;;;;;6.13;2.78;;;;;;;23.57;41.77;94955.31;5066376;28;20047;-78
2021/08/31 00:52:44;;;;;;;4.68;3.10;;;;;;;23.55;42.06;94954.31;5067760;28;20056;-78
2021/08/31 00:55:10;;;;;;;5.05;3.05;;;;;;;23.55;41.59;94951.59;5067181;28;20063;-79
2021/08/31 00:57:37;;;;;;;5.00;3.08;;;;;;;23.48;41.66;94947.47;5066844;28;20047;-75
2021/08/31 01:00:07;;;;;;;6.07;3.47;;;;;;;23.54;42.15;94950.13;5049809;28;20040;-78
2021/08/31 01:02:33;;;;;;;5.35;3.28;;;;;;;23.52;41.88;94952.63;5049118;28;20020;-79
2021/08/31 01:04:58;;;;;;;5.50;3.33;;;;;;;23.53;41.97;94954.09;5049286;28;20526;-78
2021/08/31 01:07:24;;;;;;;5.65;3.20;;;;;;;23.52;42.20;94952.63;5029239;28;20029;-79
2021/08/31 01:09:50;;;;;;;5.38;3.13;;;;;;;23.51;42.01;94957.34;5028496;28;20033;-78
2021/08/31 01:12:16;;;;;;;5.43;3.35;;;;;;;23.50;42.13;94955.13;5046582;28;20048;-78
2021/08/31 01:14:42;;;;;;;6.72;3.97;;;;;;;23.48;42.30;94957.59;5011758;28;20522;-78
2021/08/31 01:17:08;;;;;;;4.30;2.78;;;;;;;23.46;42.60;94960.84;5029436;28;20029;-78
2021/08/31 01:19:34;;;;;;;3.95;2.90;;;;;;;23.45;42.43;94958.63;5045502;28;20029;-79
2021/08/31 01:22:03;;;;;;;5.20;2.95;;;;;;;23.46;42.27;94951.94;5046957;28;20036;-79
2021/08/31 01:24:29;;;;;;;6.05;3.35;;;;;;;23.43;42.59;94961.88;5048690;28;20132;-78
2021/08/31 01:26:56;;;;;;;4.60;3.00;;;;;;;23.35;42.47;94965.69;5049270;28;20107;-78
2021/08/31 01:29:21;;;;;;;7.40;3.35;;;;;;;23.29;43.07;94961.50;5064383;28;20051;-78
2021/08/31 01:31:46;;;;;;;4.95;3.30;;;;;;;23.33;42.73;94962.72;5028677;28;20079;-78
2021/08/31 01:34:12;;;;;;;5.88;3.35;;;;;;;23.34;43.00;94960.75;5028205;28;20025;-79
2021/08/31 01:36:38;;;;;;;6.25;3.42;;;;;;;23.34;42.94;94963.47;5027961;28;20033;-78
2021/08/31 01:39:04;;;;;;;5.15;3.17;;;;;;;23.31;42.92;94965.22;5046382;28;20526;-78
2021/08/31 01:41:30;;;;;;;6.20;3.50;;;;;;;23.25;43.05;94967.25;5047089;28;20469;-78
2021/08/31 01:43:55;;;;;;;7.20;3.38;;;;;;;23.31;43.05;94965.22;5028064;28;20039;-79
2021/08/31 01:46:20;;;;;;;6.07;3.20;;;;;;;23.25;42.75;94967.25;5046834;28;20036;-79
2021/08/31 01:48:46;;;;;;;5.88;3.58;;;;;;;23.25;43.38;94966.53;5029570;28;20036;-79
2021/08/31 01:51:11;;;;;;;5.78;3.67;;;;;;;23.11;43.14;94962.19;5028550;28;20044;-79
2021/08/31 01:53:37;;;;;;;4.68;3.13;;;;;;;23.16;43.15;94964.84;5012339;28;20025;-79
2021/08/31 01:56:03;;;;;;;8.52;3.28;;;;;;;23.18;43.07;94967.81;5046808;28;20029;-79
2021/08/31 01:58:28;;;;;;;6.82;3.67;;;;;;;23.16;43.06;94962.13;5057793;28;20036;-77
2021/08/31 02:00:54;;;;;;;6.13;3.47;;;;;;;23.22;42.97;94957.38;5048338;28;20056;-77
2021/08/31 02:03:19;;;;;;;5.80;3.10;;;;;;;23.20;43.29;94959.88;5061239;28;20025;-77
2021/08/31 02:05:45;;;;;;;6.28;3.70;;;;;;;23.19;42.78;94958.38;5046390;28;20090;-77
2021/08/31 02:08:10;;;;;;;5.93;3.45;;;;;;;23.20;43.11;94959.88;5045333;28;20035;-77
2021/08/31 02:10:36;;;;;;;5.32;2.88;;;;;;;23.20;42.83;94953.66;5045816;28;20037;-77
2021/08/31 02:13:01;;;;;;;6.43;3.05;;;;;;;23.18;42.80;94956.91;5046274;28;20048;-77
2021/08/31 02:15:27;;;;;;;5.50;3.25;;;;;;;23.17;43.21;94960.91;5046133;28;20035;-77
2021/08/31 02:17:52;;;;;;;6.65;3.60;;;;;;;23.15;43.06;94957.94;5046045;28;20036;-78
2021/08/31 02:20:18;;;;;;;4.97;2.90;;;;;;;23.15;43.21;94960.66;5045417;28;20133;-75
2021/08/31 02:22:43;;;;;;;5.50;3.45;;;;;;;23.14;42.98;94951.00;5045984;28;20110;-77
2021/08/31 02:25:09;;;;;;;7.03;3.50;;;;;;;23.07;43.17;94967.91;5045007;28;20093;-77
2021/08/31 02:27:34;;;;;;;5.40;3.17;;;;;;;23.12;43.12;94964.41;5057972;28;20045;-78
2021/08/31 02:30:00;;;;;;;6.10;3.30;;;;;;;23.10;43.04;94955.25;5054261;28;20036;-79
2021/08/31 02:32:25;;;;;;;6.60;3.25;;;;;;;23.04;43.11;94958.03;5065627;28;20020;-79
2021/08/31 02:34:51;;;;;;;6.13;3.60;;;;;;;23.01;43.17;94953.59;5045902;28;20571;-79
2021/08/31 02:37:16;;;;;;;7.00;3.35;;;;;;;23.08;43.16;94963.22;5065713;28;20567;-79
2021/08/31 02:39:42;;;;;;;6.72;3.30;;;;;;;23.07;43.62;94962.44;5031952;28;20119;-78
2021/08/31 02:42:07;;;;;;;5.47;3.60;;;;;;;23.06;43.28;94971.13;5044418;28;20033;-78
2021/08/31 02:44:33;;;;;;;5.25;3.15;;;;;;;23.04;43.46;94968.91;5044611;28;20048;-78
2021/08/31 02:46:58;;;;;;;6.40;3.50;;;;;;;23.04;43.44;94966.19;5010930;28;20032;-78
2021/08/31 02:49:24;;;;;;;6.30;3.60;;;;;;;23.05;43.44;94975.84;5026887;28;20025;-80
2021/08/31 02:51:49;;;;;;;5.07;3.20;;;;;;;23.03;43.52;94972.91;5027900;28;20573;-77
2021/08/31 02:54:15;;;;;;;6.65;3.80;;;;;;;22.97;43.21;94964.03;5044961;28;20541;-80
2021/08/31 02:56:40;;;;;;;6.43;3.40;;;;;;;23.04;43.37;94984.53;5026987;28;20086;-80
2021/08/31 02:59:05;;;;;;;6.65;3.53;;;;;;;23.02;43.28;94979.59;5052956;28;20028;-80
2021/08/31 03:01:35;;;;;;;5.88;3.38;;;;;;;23.00;43.53;94979.38;5046342;28;20035;-80
2021/08/31 03:04:01;;;;;;;6.97;3.90;;;;;;;22.96;43.35;94984.34;5033350;28;20017;-80
2021/08/31 03:06:26;;;;;;;8.52;4.72;;;;;;;22.97;43.49;94980.38;5044218;28;20033;-80
2021/08/31 03:08:52;;;;;;;6.38;3.17;;;;;;;22.97;42.89;94985.81;5027182;28;20025;-80
2021/08/31 03:11:18;;;;;;;6.25;3.38;;;;;;;22.97;43.54;94985.81;5026926;28;20032;-80
2021/08/31 03:13:43;;;;;;;7.10;3.58;;;;;;;22.93;43.60;94985.34;5044212;28;20555;-79
2021/08/31 03:16:09;;;;;;;7.32;3.20;;;;;;;22.93;43.42;95001.69;5027397;28;20028;-77
2021/08/31 03:18:34;;;;;;;6.22;3.30;;;;;;;22.93;43.58;94993.53;5045359;28;20029;-79
2021/08/31 03:21:00;;;;;;;6.55;3.42;;;;;;;22.91;43.50;94993.28;5044591;28;20037;-79
2021/08/31 03:23:25;;;;;;;5.43;3.60;;;;;;;22.89;43.70;95006.63;5027615;28;20028;-79
2021/08/31 03:25:50;;;;;;;6.97;3.72;;;;;;;22.89;43.51;95001.19;5044268;28;20110;-79
2021/08/31 03:28:16;;;;;;;7.85;3.60;;;;;;;22.87;43.77;94996.75;5043401;28;20033;-79
2021/08/31 03:30:41;;;;;;;5.88;3.72;;;;;;;22.83;43.42;94979.97;5026321;28;20029;-78
2021/08/31 03:33:07;;;;;;;8.65;4.13;;;;;;;22.81;43.99;95004.22;5010403;28;20110;-79
2021/08/31 03:35:32;;;;;;;6.63;4.20;;;;;;;22.63;44.52;95004.84;5045491;28;20035;-80
2021/08/31 03:37:58;;;;;;;7.70;4.20;;;;;;;22.69;44.13;95002.81;5027479;28;20041;-79
2021/08/31 03:40:23;;;;;;;7.30;3.78;;;;;;;22.72;44.17;95012.69;5026504;28;20510;-80
2021/08/31 03:42:48;;;;;;;5.88;3.70;;;;;;;22.73;44.00;95019.63;5045340;28;20506;-78
2021/08/31 03:45:14;;;;;;;6.45;4.10;;;;;;;22.77;44.10;95009.22;5025632;28;20036;-80
2021/08/31 03:47:40;;;;;;;6.00;3.97;;;;;;;22.70;44.22;95004.31;5044953;28;20068;-80
2021/08/31 03:50:05;;;;;;;5.32;3.55;;;;;;;22.78;43.63;95010.69;5010375;28;20032;-78
2021/08/31 03:52:31;;;;;;;6.43;3.88;;;;;;;22.75;43.74;95008.97;5044897;28;20040;-78
2021/08/31 03:54:56;;;;;;;8.65;4.20;;;;;;;22.70;43.77;95026.06;5027858;28;20032;-79
2021/08/31 03:57:22;;;;;;;5.93;3.83;;;;;;;22.70;44.22;94999.59;5030303;28;20039;-78
2021/08/31 03:59:47;;;;;;;5.50;3.38;;;;;;;22.75;43.80;95022.56;5014516;28;20029;-78
2021/08/31 04:02:13;;;;;;;8.65;4.72;;;;;;;22.75;43.48;95011.69;5047339;28;20090;-79
2021/08/31 04:04:38;;;;;;;7.05;4.15;;;;;;;22.74;44.08;95012.94;5047952;28;20066;-80
2021/08/31 04:07:04;;;;;;;6.80;4.07;;;;;;;22.74;43.92;95021.13;5030098;28;20021;-78
2021/08/31 04:09:29;;;;;;;6.88;4.10;;;;;;;22.73;44.00;95008.75;5030620;28;20037;-79
2021/08/31 04:11:55;;;;;;;8.50;4.40;;;;;;;22.72;44.21;95024.34;5050191;28;20592;-81
2021/08/31 04:14:20;;;;;;;7.53;4.15;;;;;;;22.71;43.61;95024.84;5068482;28;20127;-80
2021/08/31 04:16:46;;;;;;;9.90;4.30;;;;;;;22.65;43.62;95007.81;5032849;28;20029;-75
2021/08/31 04:19:11;;;;;;;10.55;4.50;;;;;;;22.60;43.86;95027.59;5051105;28;20051;-77
2021/08/31 04:21:36;;;;;;;7.65;4.00;;;;;;;22.51;44.58;95025.94;5049107;28;20029;-78
2021/08/31 04:24:03;;;;;;;11.20;5.00;;;;;;;22.44;45.04;95009.41;5050679;28;20074;-76
2021/08/31 04:26:28;;;;;;;7.63;4.32;;;;;;;22.49;45.13;95027.69;5069568;28;20020;-78
2021/08/31 04:28:53;;;;;;;8.23;4.60;;;;;;;22.48;45.36;95020.75;5067762;28;20043;-77
2021/08/31 04:31:22;;;;;;;11.25;4.43;;;;;;;22.50;45.40;95029.91;5052596;28;20044;-75
2021/08/31 04:33:47;;;;;;;9.00;4.25;;;;;;;22.49;45.04;95022.22;5049330;28;20024;-74
2021/08/31 04:36:13;;;;;;;9.82;5.30;;;;;;;22.49;45.08;95022.22;5030559;28;20025;-73
2021/08/31 04:38:38;;;;;;;9.93;4.00;;;;;;;22.47;45.51;95020.03;5039899;28;20032;-71
2021/08/31 04:41:04;;;;;;;10.60;4.05;;;;;;;22.46;45.38;95023.97;5033005;28;20021;-71
2021/08/31 04:43:29;;;;;;;7.10;3.78;;;;;;;22.52;44.95;95032.13;5061404;28;20571;-72
2021/08/31 04:45:55;;;;;;;8.88;3.50;;;;;;;22.53;45.16;95042.50;5047349;28;20028;-75
2021/08/31 04:48:20;;;;;;;5.65;4.18;;;;;;;22.48;45.11;95026.19;5047242;28;20029;-77
2021/08/31 04:50:45;;;;;;;9.38;4.85;;;;;;;22.54;45.37;95029.63;5030914;28;20669;-77
2021/08/31 04:53:11;;;;;;;7.65;4.07;;;;;;;22.56;45.38;95040.75;5053775;28;20029;-73
2021/08/31 04:55:36;;;;;;;8.85;4.28;;;;;;;22.62;45.08;95046.91;5047270;28;20514;-80
2021/08/31 04:58:02;;;;;;;6.18;4.00;;;;;;;22.66;45.12;95036.47;5055454;28;20617;-77
2021/08/31 05:00:27;;;;;;;8.95;4.07;;;;;;;22.65;44.62;95038.47;5047525;28;20652;-80
2021/08/31 05:02:55;;;;;;;7.72;3.70;;;;;;;22.76;44.49;95037.66;5029344;28;20345;-79
2021/08/31 05:05:21;;;;;;;8.02;3.83;;;;;;;22.82;44.46;95038.38;5046785;28;20036;-76
2021/08/31 05:07:46;;;;;;;7.07;4.45;;;;;;;22.86;44.30;95038.84;5051277;28;20388;-76
2021/08/31 05:10:12;;;;;;;7.95;4.47;;;;;;;22.91;44.07;95036.84;5057000;28;20029;-76
2021/08/31 05:12:37;;;;;;;5.38;3.88;;;;;;;22.98;44.00;95041.75;5046468;28;20048;-76
2021/08/31 05:15:03;;;;;;;7.82;4.93;;;;;;;23.03;43.62;95032.06;5047100;28;20715;-76
2021/08/31 05:17:28;;;;;;;7.85;3.78;;;;;;;23.05;43.75;95027.59;5047420;28;20082;-76
2021/08/31 05:19:54;;;;;;;8.20;4.18;;;;;;;23.15;43.45;95028.78;5028822;28;20040;-77
2021/08/31 05:22:19;;;;;;;7.85;4.25;;;;;;;23.24;43.90;95028.44;5046907;28;20254;-74
2021/08/31 05:24:46;;;;;;;8.70;4.75;;;;;;;23.35;43.03;95028.34;5028999;28;20025;-78
2021/08/31 05:27:12;;;;;;;7.88;4.35;;;;;;;23.40;43.26;95027.56;5052642;28;20619;-79
2021/08/31 05:29:37;;;;;;;10.23;4.97;;;;;;;23.35;43.49;95025.63;5025578;28;20044;-82
2021/08/31 05:32:03;;;;;;;10.00;5.68;;;;;;;23.27;43.20;95024.69;5046762;28;20033;-77
2021/08/31 05:34:28;;;;;;;7.22;4.70;;;;;;;23.45;42.41;95029.50;5046112;28;20025;-85
2021/08/31 05:36:54;;;;;;;6.32;4.15;;;;;;;23.38;43.28;95019.16;5047186;28;20189;-89
2021/08/31 05:39:19;;;;;;;8.32;4.40;;;;;;;23.50;42.98;95031.44;5029056;28;20029;-79
2021/08/31 05:41:45;;;;;;;9.00;4.55;;;;;;;23.59;42.87;95028.38;5047728;28;20039;-78
2021/08/31 05:44:10;;;;;;;6.40;4.15;;;;;;;23.72;41.92;95025.81;5046072;28;20020;-71
2021/08/31 05:46:36;;;;;;;8.30;4.30;;;;;;;23.72;41.70;95023.06;5045955;28;20040;-76
2021/08/31 05:49:01;;;;;;;6.63;3.95;;;;;;;23.81;41.59;95017.28;5046227;28;20029;-77
2021/08/31 05:51:27;;;;;;;8.60;4.15;;;;;;;23.92;41.74;95029.56;5046261;28;20417;-76
2021/08/31 05:53:54;;;;;;;6.53;3.95;;;;;;;23.96;41.45;95035.47;5046485;28;20791;-78
2021/08/31 05:56:19;;;;;;;9.30;4.60;;;;;;;24.11;40.94;95029.59;5045832;28;20025;-77
2021/08/31 05:58:44;;;;;;;8.50;4.35;;;;;;;24.10;41.11;95028.13;5055593;28;20025;-76
2021/08/31 06:01:10;;;;;;;6.25;4.00;;;;;;;24.15;41.94;95028.03;5054392;28;20029;-76
2021/08/31 06:03:35;;;;;;;6.00;3.92;;;;;;;24.30;41.76;95031.09;5045535;28;20059;-77
2021/08/31 06:06:01;;;;;;;6.28;3.63;;;;;;;24.40;41.36;95032.25;5028112;28;20422;-77
2021/08/31 06:08:30;;;;;;;7.43;3.70;;;;;;;24.49;41.60;95037.34;5045909;28;20029;-77
2021/08/31 06:10:55;;;;;;;5.43;3.63;;;;;;;24.56;41.52;95036.78;5045266;28;20123;-75
2021/08/31 06:13:21;;;;;;;5.85;3.40;;;;;;;24.74;41.19;95025.09;5045648;28;20486;-75
2021/08/31 06:15:46;;;;;;;5.32;3.33;;;;;;;24.83;41.01;95034.38;5045964;28;20032;-76
2021/08/31 06:18:12;;;;;;;5.30;3.15;;;;;;;24.95;40.81;95035.72;5045123;28;20033;-76
2021/08/31 06:20:37;;;;;;;5.13;3.33;;;;;;;25.07;40.63;95031.59;5046437;28;20039;-76
2021/08/31 06:23:03;;;;;;;7.13;3.55;;;;;;;25.25;41.17;95035.53;5051972;28;20025;-76
2021/08/31 06:25:29;;;;;;;8.68;3.25;;;;;;;25.30;40.71;95032.72;5045560;28;20024;-79
2021/08/31 06:27:54;;;;;;;6.18;3.75;;;;;;;25.39;40.30;95035.03;5045335;28;20090;-75
2021/08/31 06:30:20;;;;;;;7.43;3.70;;;;;;;25.51;40.75;95030.88;5045821;28;20024;-76
2021/08/31 06:32:45;;;;;;;6.90;3.28;;;;;;;25.59;40.79;95020.78;5045498;28;20849;-72
2021/08/31 06:35:11;;;;;;;6.43;3.22;;;;;;;25.67;40.23;95016.22;5045123;28;20186;-76
2021/08/31 06:37:36;;;;;;;10.07;5.10;;;;;;;25.84;38.88;95020.09;5045316;28;20106;-77
2021/08/31 06:40:01;;;;;;;8.23;3.50;;;;;;;25.82;40.41;95006.22;5044809;28;20029;-74
2021/08/31 06:42:27;;;;;;;7.00;3.70;;;;;;;25.89;40.28;95016.56;5044938;28;20036;-77
2021/08/31 06:44:52;;;;;;;4.78;3.22;;;;;;;25.91;40.79;95020.22;5044505;28;20009;-74
2021/08/31 06:47:18;;;;;;;7.43;3.78;;;;;;;26.08;40.75;95017.91;5044769;28;20402;-77
2021/08/31 06:49:43;;;;;;;4.88;3.38;;;;;;;26.03;40.38;95015.28;5045390;28;20025;-77
2021/08/31 06:52:09;;;;;;;6.07;3.65;;;;;;;26.10;40.51;95025.59;5027173;28;20025;-76
2021/08/31 06:54:34;;;;;;;5.60;3.58;;;;;;;26.12;41.18;95023.81;5045058;28;20025;-75
2021/08/31 06:56:59;;;;;;;5.47;3.47;;;;;;;26.17;40.54;95028.44;5044816;28;20426;-75
2021/08/31 06:59:25;;;;;;;6.47;3.40;;;;;;;26.16;40.71;95024.22;5026935;28;20024;-75
2021/08/31 07:01:50;;;;;;;7.47;3.25;;;;;;;26.17;41.17;95020.22;5056430;28;20024;-75
2021/08/31 07:04:16;;;;;;;7.10;3.50;;;;;;;26.14;41.18;95021.28;5044730;28;20017;-75
2021/08/31 07:06:41;;;;;;;5.70;3.10;;;;;;;26.15;41.16;95033.69;5027006;28;20384;-75
2021/08/31 07:09:07;;;;;;;9.73;3.30;;;;;;;26.11;41.21;95038.75;5044730;28;20029;-75
2021/08/31 07:11:32;;;;;;;5.95;3.10;;;;;;;26.08;41.29;95028.84;5044992;28;20021;-75
2021/08/31 07:13:58;;;;;;;8.15;3.40;;;;;;;26.08;41.48;95033.59;5044491;28;20040;-75
2021/08/31 07:16:23;;;;;;;5.25;3.22;;;;;;;26.06;40.84;95031.38;5026858;28;20460;-75
2021/08/31 07:18:48;;;;;;;6.35;3.08;;;;;;;25.96;41.62;95027.59;5044980;28;20087;-75
2021/08/31 07:21:14;;;;;;;6.57;3.53;;;;;;;26.01;41.41;95034.97;5044480;28;20059;-75
2021/08/31 07:23:39;;;;;;;5.47;3.33;;;;;;;25.99;41.37;95037.50;5053754;28;20017;-75
2021/08/31 07:26:05;;;;;;;4.78;2.80;;;;;;;25.91;41.58;95041.38;5029008;28;20458;-75
2021/08/31 07:28:30;;;;;;;5.82;3.20;;;;;;;25.91;41.64;95036.63;5045257;28;20051;-75
2021/08/31 07:30:56;;;;;;;5.30;3.83;;;;;;;25.90;41.21;95040.66;5048607;28;20032;-75
2021/08/31 07:33:21;;;;;;;5.22;3.35;;;;;;;25.89;41.93;95044.66;5048970;28;20090;-74
2021/08/31 07:35:47;;;;;;;6.82;3.70;;;;;;;25.89;41.80;95039.16;5050344;28;20043;-74
2021/08/31 07:38:12;;;;;;;5.63;3.22;;;;;;;25.86;41.85;95040.22;5035786;28;20016;-74
2021/08/31 07:40:38;;;;;;;5.50;3.50;;;;;;;25.83;41.85;95035.78;5049916;28;20039;-75
2021/08/31 07:43:03;;;;;;;7.65;3.65;;;;;;;25.83;41.53;95032.34;5042239;28;20079;-75
2021/08/31 07:45:29;;;;;;;6.03;3.33;;;;;;;25.82;41.80;95045.25;5046018;28;20033;-75
2021/08/31 07:47:55;;;;;;;4.45;3.05;;;;;;;25.81;41.66;95038.34;5048652;28;20032;-75
2021/08/31 07:50:20;;;;;;;7.72;3.20;;;;;;;25.77;42.03;95025.47;5048469;28;20025;-76
2021/08/31 07:52:47;;;;;;;5.07;3.00;;;;;;;25.77;41.82;95028.19;5048584;28;20021;-75
2021/08/31 07:55:12;;;;;;;5.75;3.08;;;;;;;25.77;42.23;95034.44;5048216;28;20513;-75
2021/08/31 07:57:38;;;;;;;6.03;3.10;;;;;;;25.77;42.13;95026.22;5048430;28;20021;-74
2021/08/31 08:00:05;;;;;;;5.28;3.10;;;;;;;25.78;42.10;95026.94;5047894;28;20033;-75
2021/08/31 08:02:33;;;;;;;4.97;3.13;;;;;;;25.77;41.91;95025.47;5048353;28;20442;-74
2021/08/31 08:04:59;;;;;;;5.88;3.13;;;;;;;25.77;41.94;95025.47;5014229;28;20021;-74
2021/08/31 08:07:26;;;;;;;5.68;2.85;;;;;;;25.77;42.00;95030.94;5047517;28;20115;-75
2021/08/31 08:09:52;;;;;;;4.50;2.80;;;;;;;25.75;41.91;95028.72;5047657;28;20028;-74
2021/08/31 08:12:17;;;;;;;6.88;3.20;;;;;;;25.75;42.57;95017.06;5047451;28;20037;-75
2021/08/31 08:14:43;;;;;;;6.70;3.30;;;;;;;25.73;42.10;95017.59;5047485;28;20033;-75
2021/08/31 08:17:08;;;;;;;5.93;2.92;;;;;;;25.76;42.54;95018.53;5047596;28;20555;-75
2021/08/31 08:19:34;;;;;;;5.05;3.00;;;;;;;25.74;42.19;95019.06;5048041;28;20486;-75
2021/08/31 08:21:59;;;;;;;4.53;2.75;;;;;;;25.76;42.24;95013.78;5013872;28;20025;-74
2021/08/31 08:24:25;;;;;;;5.53;3.47;;;;;;;25.76;42.53;95019.28;5048175;28;20013;-74
2021/08/31 08:26:52;;;;;;;6.45;3.25;;;;;;;25.76;42.40;95013.06;5048278;28;20021;-74
2021/08/31 08:29:17;;;;;;;6.32;3.22;;;;;;;25.76;42.34;95013.06;5048329;28;20029;-74
2021/08/31 08:31:45;;;;;;;4.95;3.15;;;;;;;25.72;42.85;95012.63;5029359;28;20496;-74
2021/08/31 08:34:11;;;;;;;4.97;3.08;;;;;;;25.75;42.85;95006.13;5029787;28;20033;-74
2021/08/31 08:36:36;;;;;;;5.50;3.50;;;;;;;25.73;42.70;95005.91;5047254;28;20078;-75
2021/08/31 08:39:02;;;;;;;5.78;2.90;;;;;;;25.73;42.51;95014.13;5054109;28;20016;-73
2021/08/31 08:41:27;;;;;;;5.38;3.10;;;;;;;25.76;42.62;95008.31;5067433;28;20036;-75
2021/08/31 08:43:58;;;;;;;6.93;3.50;;;;;;;25.70;42.53;95004.22;5037430;28;20491;-75
2021/08/31 08:46:24;;;;;;;5.70;3.10;;;;;;;25.78;42.52;94999.59;5049978;28;20024;-74
2021/08/31 08:48:49;;;;;;;6.60;3.30;;;;;;;25.78;42.20;94999.59;5031360;28;20056;-75
2021/08/31 08:51:15;;;;;;;4.85;2.83;;;;;;;25.78;42.58;94994.13;5048064;28;20021;-75
2021/08/31 08:53:40;;;;;;;5.10;3.30;;;;;;;25.78;42.24;94988.66;5029297;28;20029;-74
2021/08/31 08:56:06;;;;;;;4.53;3.00;;;;;;;25.78;42.30;94999.59;5047653;28;20029;-75
2021/08/31 08:58:31;;;;;;;5.18;3.10;;;;;;;25.81;42.88;94993.81;5014025;28;20028;-74
2021/08/31 09:01:04;;;;;;;5.93;3.00;;;;;;;25.81;43.01;94983.63;5029900;28;20040;-74
2021/08/31 09:03:41;;;;;;;6.20;3.00;;;;;;;25.82;42.83;94984.34;5030585;28;20103;-74
2021/08/31 09:06:14;;;;;;;6.93;2.83;;;;;;;25.81;42.28;94989.09;5029497;28;20033;-75
2021/08/31 09:08:42;;;;;;;4.97;2.88;;;;;;;25.83;42.92;94983.81;5047561;28;20539;-75
2021/08/31 09:11:27;;;;;;;5.10;2.70;;;;;;;25.83;43.02;94978.34;5030624;28;20033;-75
2021/08/31 09:14:12;;;;;;;5.40;3.22;;;;;;;25.75;42.40;94962.34;5025070;28;20079;-75
2021/08/31 09:16:38;;;;;;;5.32;2.80;;;;;;;25.82;42.59;94968.66;5025565;28;20064;-75
2021/08/31 09:19:03;;;;;;;4.75;2.80;;;;;;;25.84;43.01;94960.66;5025208;28;20559;-75
2021/08/31 09:21:29;;;;;;;4.10;2.78;;;;;;;25.85;42.69;94962.13;5026989;28;20029;-75
2021/08/31 09:23:56;;;;;;;6.15;2.88;;;;;;;25.86;42.42;94963.59;5009245;28;20026;-75
2021/08/31 09:26:54;;;;;;;4.85;2.42;;;;;;;25.82;42.83;94963.19;5025746;28;20033;-76
2021/08/31 09:29:21;;;;;;;5.72;2.70;;;;;;;25.86;42.76;94963.59;4969402;28;20051;-75
2021/08/31 09:31:56;;;;;;;4.80;2.92;;;;;;;25.89;43.00;94968.03;5021517;28;20594;-75
2021/08/31 09:34:41;;;;;;;4.78;2.95;;;;;;;25.89;42.84;94968.03;5046709;28;20036;-74
2021/08/31 09:37:35;;;;;;;5.00;2.97;;;;;;;25.89;42.82;94957.09;5045520;28;20687;-75
2021/08/31 09:40:03;;;;;;;4.82;2.67;;;;;;;25.93;42.45;94957.50;5043665;28;20561;-75
2021/08/31 09:42:28;;;;;;;5.38;2.97;;;;;;;25.93;42.44;94946.56;5025608;28;20076;-74
2021/08/31 09:45:04;;;;;;;3.92;2.65;;;;;;;25.95;42.77;94949.50;5024319;28;20033;-75
2021/08/31 09:47:36;;;;;;;4.63;2.90;;;;;;;25.91;42.94;94945.63;5025814;28;20036;-74
2021/08/31 09:50:05;;;;;;;4.45;2.85;;;;;;;25.94;42.61;94948.03;5025352;28;20543;-75
2021/08/31 09:52:31;;;;;;;4.40;2.40;;;;;;;25.97;43.10;94946.25;5025069;28;20022;-73
2021/08/31 09:54:56;;;;;;;5.03;2.72;;;;;;;25.98;42.47;94947.72;5026715;28;20037;-73
2021/08/31 09:57:39;;;;;;;4.80;2.95;;;;;;;26.00;42.84;94934.97;5026478;28;20033;-75
2021/08/31 10:00:09;;;;;;;4.90;3.35;;;;;;;25.99;42.33;94932.75;5023697;28;20037;-76
2021/08/31 10:02:34;;;;;;;4.93;2.63;;;;;;;26.00;42.60;94932.22;5025679;28;20112;-73
2021/08/31 10:05:00;;;;;;;3.60;2.38;;;;;;;26.00;42.45;94929.50;5025388;28;20116;-73
2021/08/31 10:07:26;;;;;;;4.00;2.70;;;;;;;26.03;42.56;94928.44;5024672;28;20025;-73
2021/08/31 10:09:52;;;;;;;3.75;2.50;;;;;;;26.05;42.57;94925.94;5024372;28;20043;-74
2021/08/31 10:12:19;;;;;;;4.82;2.80;;;;;;;26.02;42.38;94916.03;5031708;28;20466;-73
2021/08/31 10:14:44;;;;;;;5.75;2.55;;;;;;;26.07;42.68;94923.38;5065934;28;20035;-73
2021/08/31 10:17:10;;;;;;;4.03;2.65;;;;;;;26.08;42.01;94913.88;5047288;28;20025;-73
2021/08/31 10:19:37;;;;;;;3.63;2.63;;;;;;;26.10;42.20;94905.16;5065583;28;20111;-74
2021/08/31 10:22:03;;;;;;;3.75;2.40;;;;;;;26.07;42.22;94896.00;5047653;28;20036;-74
2021/08/31 10:24:28;;;;;;;4.65;2.83;;;;;;;26.09;42.14;94885.25;5047916;28;20019;-73
2021/08/31 10:26:54;;;;;;;4.47;2.85;;;;;;;26.15;42.26;94907.78;5047923;28;20017;-73
2021/08/31 10:29:19;;;;;;;5.50;2.90;;;;;;;26.15;42.49;94907.78;5048001;28;20024;-74
2021/08/31 10:31:45;;;;;;;3.45;2.60;;;;;;;26.20;41.73;94893.22;5065202;28;20040;-73
2021/08/31 10:34:31;;;;;;;3.90;2.90;;;;;;;26.20;42.33;94909.66;5065585;28;20474;-74
2021/08/31 10:37:15;;;;;;;3.85;2.40;;;;;;;26.21;42.16;94894.72;5044855;28;20048;-74
2021/08/31 10:39:50;;;;;;;4.22;2.65;;;;;;;26.22;41.92;94887.97;5051496;28;20076;-74
2021/08/31 10:42:25;;;;;;;3.58;2.35;;;;;;;26.22;42.31;94885.25;5044720;28;20035;-74
2021/08/31 10:45:00;;;;;;;4.15;2.63;;;;;;;26.20;41.79;94887.75;5045648;28;20487;-74
2021/08/31 10:47:37;;;;;;;3.95;2.60;;;;;;;26.24;41.91;94888.16;5044567;28;20670;-74
2021/08/31 10:50:07;;;;;;;7.05;2.83;;;;;;;26.26;42.15;94885.63;5027995;28;20075;-74
2021/08/31 10:52:34;;;;;;;5.05;2.70;;;;;;;26.27;42.28;94871.44;5045038;28;20522;-74
2021/08/31 10:54:59;;;;;;;4.65;2.67;;;;;;;26.28;42.21;94872.19;5045210;28;20029;-74
2021/08/31 10:57:40;;;;;;;3.75;2.40;;;;;;;26.32;41.90;94867.09;5045558;28;20021;-74
2021/08/31 11:00:15;;;;;;;5.05;2.75;;;;;;;26.33;42.00;94874.06;5043817;28;20102;-74
2021/08/31 11:02:49;;;;;;;3.58;2.47;;;;;;;26.35;41.63;94866.03;5044971;28;20572;-74
2021/08/31 11:05:26;;;;;;;4.72;2.53;;;;;;;26.38;42.00;94864.97;5042907;28;20036;-74
2021/08/31 11:07:54;;;;;;;3.67;2.45;;;;;;;26.37;41.44;94858.78;5044650;28;20043;-74
2021/08/31 11:10:23;;;;;;;3.78;2.67;;;;;;;26.39;41.60;94866.47;5064079;28;20035;-74
2021/08/31 11:12:49;;;;;;;3.10;2.00;;;;;;;26.42;41.42;94865.41;5058741;28;20045;-73
2021/08/31 11:15:22;;;;;;;5.10;2.72;;;;;;;26.43;41.91;94866.88;5055871;28;20517;-74
2021/08/31 11:17:49;;;;;;;4.55;2.30;;;;;;;26.43;41.60;94877.84;5043313;28;20062;-74
2021/08/31 11:20:18;;;;;;;4.28;2.20;;;;;;;26.47;41.57;94878.97;5045197;28;20036;-74
2021/08/31 11:22:49;;;;;;;3.83;2.47;;;;;;;26.48;41.76;94857.78;5044870;28;20476;-74
2021/08/31 11:25:15;;;;;;;4.25;2.72;;;;;;;26.47;41.43;94856.31;5027234;28;20491;-74
2021/08/31 11:27:57;;;;;;;4.35;2.40;;;;;;;26.49;41.44;94859.28;5045114;28;20028;-74
2021/08/31 11:30:22;;;;;;;3.45;2.30;;;;;;;26.49;41.30;94859.28;5026496;28;20471;-74
2021/08/31 11:32:48;;;;;;;4.75;2.58;;;;;;;26.49;41.57;94864.75;5027109;28;20116;-74